Shen Hang 935 — BXGY — position and weather

sailwx.info

Track history (hours):
 
Tides and Currents Weather Stations Pressure Air Temp Water Temp Dewpoint Dewpoint Depression Visibility Wind Speed Wind Dir Waves Ship Positions

Shen Hang 935

Last reported at 2015-Jul-01 01:11 UTC. Time now 2015-Jul-03 22:02 UTC.
Position N 23°01' E 113°31'.

Length 49 m; draft 2.8 m.

Type: Ship. MMSI: 412466550.

Date/timePositionNaut miles runAvg speedWind from/ knotsBaromVisibWave heightAir tempDewpointWater temp
2015-Jul-01 01:11N 23°01' E 113°31'3 0.1
2015-Jun-29 15:12N 23°03' E 113°32'1 0.2
2015-Jun-29 08:33N 23°02' E 113°31'1 1.0
2015-Jun-29 07:19N 23°01' E 113°32'0 0.0
2015-Jun-29 04:32N 23°01' E 113°32'0 0.0
2015-Jun-29 01:17N 23°01' E 113°32'0 0.2
2015-Jun-29 00:33N 23°01' E 113°32'57 3.8
2015-Jun-28 09:33N 22°18' E 114°12'2 0.1
2015-Jun-27 04:26N 22°17' E 114°14'5 6.0
2015-Jun-27 03:33N 22°18' E 114°08'55 2.3
2015-Jun-26 03:32N 23°01' E 113°31'6 5.9
2015-Jun-26 02:33N 23°06' E 113°27'0 0.0
2015-Jun-26 01:20N 23°06' E 113°27'0 0.0
2015-Jun-25 20:22N 23°06' E 113°27'1 0.0
2015-Jun-25 09:09N 23°05' E 113°27'0 0.0
2015-Jun-25 08:33N 23°05' E 113°27'0 0.2
2015-Jun-25 07:32N 23°05' E 113°27'5 1.8
2015-Jun-25 04:33N 23°02' E 113°31'5 4.8
2015-Jun-25 03:33N 22°57' E 113°33'  
2015-Jun-22 13:11N 23°06' E 113°27'0 0.1
2015-Jun-22 10:25N 23°06' E 113°27'0 0.2
2015-Jun-22 09:18N 23°06' E 113°27'0 0.0
2015-Jun-22 08:33N 23°06' E 113°27'0 0.0
2015-Jun-22 07:06N 23°06' E 113°27'0 0.2
2015-Jun-22 06:30N 23°06' E 113°27'0 0.0
2015-Jun-22 05:18N 23°06' E 113°27'0 0.0
2015-Jun-22 04:33N 23°06' E 113°27'6 5.6
2015-Jun-22 03:33N 23°02' E 113°31'62 5.2
2015-Jun-21 15:33N 22°16' E 114°16'18 1.4
2015-Jun-21 02:07N 22°34' E 114°15'  
Track history (hours):
 
Tides and Currents Weather Stations Pressure Air Temp Water Temp Dewpoint Dewpoint Depression Visibility Wind Speed Wind Dir Waves Ship Positions

Shen Hang 935

Last reported at 2015-Jul-01 01:11 UTC. Time now 2015-Jul-03 22:02 UTC.
Position N 23°01' E 113°31'.

Length 49 m; draft 2.8 m.

Type: Ship. MMSI: 412466550.

Date/timePositionNaut miles runAvg speedWind from/ knotsBaromVisibWave heightAir tempDewpointWater temp
2015-Jul-01 01:11N 23°01' E 113°31'3 0.1
2015-Jun-29 15:12N 23°03' E 113°32'1 0.2
2015-Jun-29 08:33N 23°02' E 113°31'1 1.0
2015-Jun-29 07:19N 23°01' E 113°32'0 0.0
2015-Jun-29 04:32N 23°01' E 113°32'0 0.0
2015-Jun-29 01:17N 23°01' E 113°32'0 0.2
2015-Jun-29 00:33N 23°01' E 113°32'57 3.8
2015-Jun-28 09:33N 22°18' E 114°12'2 0.1
2015-Jun-27 04:26N 22°17' E 114°14'5 6.0
2015-Jun-27 03:33N 22°18' E 114°08'55 2.3
2015-Jun-26 03:32N 23°01' E 113°31'6 5.9
2015-Jun-26 02:33N 23°06' E 113°27'0 0.0
2015-Jun-26 01:20N 23°06' E 113°27'0 0.0
2015-Jun-25 20:22N 23°06' E 113°27'1 0.0
2015-Jun-25 09:09N 23°05' E 113°27'0 0.0
2015-Jun-25 08:33N 23°05' E 113°27'0 0.2
2015-Jun-25 07:32N 23°05' E 113°27'5 1.8
2015-Jun-25 04:33N 23°02' E 113°31'5 4.8
2015-Jun-25 03:33N 22°57' E 113°33'  
2015-Jun-22 13:11N 23°06' E 113°27'0 0.1
2015-Jun-22 10:25N 23°06' E 113°27'0 0.2
2015-Jun-22 09:18N 23°06' E 113°27'0 0.0
2015-Jun-22 08:33N 23°06' E 113°27'0 0.0
2015-Jun-22 07:06N 23°06' E 113°27'0 0.2
2015-Jun-22 06:30N 23°06' E 113°27'0 0.0
2015-Jun-22 05:18N 23°06' E 113°27'0 0.0
2015-Jun-22 04:33N 23°06' E 113°27'6 5.6
2015-Jun-22 03:33N 23°02' E 113°31'62 5.2
2015-Jun-21 15:33N 22°16' E 114°16'18 1.4
2015-Jun-21 02:07N 22°34' E 114°15'  

Dump ship's entire track history